createdAt,value
2023-05-17T00:00:19.369Z,8.70
2023-05-17T00:03:06.256Z,8.60
2023-05-17T00:05:53.370Z,8.60
2023-05-17T00:08:40.434Z,8.50
2023-05-17T00:11:27.134Z,8.50
2023-05-17T00:14:13.930Z,8.50
2023-05-17T00:17:00.765Z,8.40
2023-05-17T00:19:47.612Z,8.40
2023-05-17T00:22:34.408Z,8.30
2023-05-17T00:25:21.344Z,7.90
2023-05-17T00:28:08.062Z,8.20
2023-05-17T00:30:54.845Z,8.20
2023-05-17T00:33:41.617Z,8.10
2023-05-17T00:36:28.354Z,8.00
2023-05-17T00:39:15.106Z,7.90
2023-05-17T00:42:01.988Z,7.90
2023-05-17T00:44:48.685Z,7.90
2023-05-17T00:47:35.501Z,7.90
2023-05-17T00:50:22.357Z,7.90
2023-05-17T00:53:09.403Z,7.90
2023-05-17T00:55:56.273Z,7.90
2023-05-17T00:58:43.133Z,8.00
2023-05-17T01:01:30.198Z,8.00
2023-05-17T01:04:17.016Z,8.00
2023-05-17T01:07:04.043Z,7.90
2023-05-17T01:09:51.008Z,7.90
2023-05-17T01:12:56.992Z,7.90
2023-05-17T01:15:46.830Z,7.90
2023-05-17T01:18:39.527Z,7.80
2023-05-17T01:21:44.931Z,7.90
2023-05-17T01:24:50.561Z,7.80
2023-05-17T01:27:39.957Z,7.90
2023-05-17T01:30:27.100Z,7.90
2023-05-17T01:33:14.482Z,7.90
2023-05-17T01:36:01.350Z,7.90
2023-05-17T01:38:48.167Z,7.80
2023-05-17T01:41:40.328Z,7.80
2023-05-17T01:44:33.188Z,7.80
2023-05-17T01:47:24.495Z,7.70
2023-05-17T01:50:13.215Z,7.80
2023-05-17T01:53:07.756Z,7.80
2023-05-17T01:55:56.844Z,7.90
2023-05-17T01:58:45.856Z,7.90
2023-05-17T02:01:33.536Z,7.90
2023-05-17T02:04:20.864Z,8.00
2023-05-17T02:07:07.903Z,7.90
2023-05-17T02:09:54.645Z,7.90
2023-05-17T02:12:42.296Z,8.00
2023-05-17T02:15:29.203Z,8.00
2023-05-17T02:18:16.404Z,8.00
2023-05-17T02:21:03.407Z,7.90
2023-05-17T02:23:50.125Z,7.80
2023-05-17T02:26:36.958Z,7.80
2023-05-17T02:29:23.798Z,7.80
2023-05-17T02:32:11.200Z,7.70
2023-05-17T02:34:58.511Z,7.70
2023-05-17T02:37:45.387Z,7.70
2023-05-17T02:40:32.132Z,7.70
2023-05-17T02:43:18.931Z,7.80
2023-05-17T02:46:06.194Z,7.70
2023-05-17T02:48:52.896Z,7.70
2023-05-17T02:51:39.651Z,7.70
2023-05-17T02:54:26.577Z,7.60
2023-05-17T02:57:13.672Z,7.60
2023-05-17T03:00:00.528Z,7.50
2023-05-17T03:02:47.442Z,7.50
2023-05-17T03:05:34.219Z,7.40
2023-05-17T03:08:21.759Z,7.40
2023-05-17T03:11:08.493Z,7.40
2023-05-17T03:13:55.217Z,7.40
2023-05-17T03:16:41.909Z,7.40
2023-05-17T03:19:28.957Z,7.40
2023-05-17T03:22:15.754Z,7.40
2023-05-17T03:25:02.660Z,7.40
2023-05-17T03:27:49.479Z,7.40
2023-05-17T03:30:36.395Z,7.40
2023-05-17T03:33:23.344Z,7.30
2023-05-17T03:36:10.124Z,7.30
2023-05-17T03:38:56.912Z,7.20
2023-05-17T03:41:43.708Z,7.20
2023-05-17T03:44:30.506Z,7.10
2023-05-17T03:47:17.238Z,7.10
2023-05-17T03:50:04.244Z,7.10
2023-05-17T03:52:51.056Z,7.10
2023-05-17T03:55:37.877Z,7.10
2023-05-17T03:58:24.668Z,7.00
2023-05-17T04:01:12.010Z,7.00
2023-05-17T04:03:58.872Z,7.00
2023-05-17T04:06:45.749Z,6.90
2023-05-17T04:09:35.063Z,6.90
2023-05-17T04:12:21.831Z,7.00
2023-05-17T04:15:08.813Z,6.90
2023-05-17T04:17:55.681Z,6.90
2023-05-17T04:20:42.521Z,6.90
2023-05-17T04:23:29.665Z,6.90
2023-05-17T04:26:16.622Z,6.90
2023-05-17T04:29:03.340Z,6.90
2023-05-17T04:31:50.216Z,6.90
2023-05-17T04:34:37.480Z,6.90
2023-05-17T04:37:24.317Z,6.90
2023-05-17T04:40:11.291Z,6.90
2023-05-17T04:42:58.060Z,7.00
2023-05-17T04:45:44.911Z,7.00
2023-05-17T04:48:32.518Z,7.00
2023-05-17T04:51:19.381Z,7.00
2023-05-17T04:54:08.639Z,7.10
2023-05-17T04:56:55.379Z,7.10
2023-05-17T04:59:42.143Z,7.20
2023-05-17T05:02:28.959Z,7.20
2023-05-17T05:05:15.874Z,7.20
2023-05-17T05:08:02.676Z,7.30
2023-05-17T05:10:50.032Z,7.40
2023-05-17T05:13:38.996Z,7.40
2023-05-17T05:16:26.206Z,7.50
2023-05-17T05:19:13.236Z,7.50
2023-05-17T05:22:00.154Z,7.60
2023-05-17T05:24:46.975Z,7.60
2023-05-17T05:27:35.691Z,7.70
2023-05-17T05:30:22.680Z,7.70
2023-05-17T05:33:09.747Z,7.80
2023-05-17T05:35:56.649Z,7.90
2023-05-17T05:38:43.421Z,8.00
2023-05-17T05:41:30.193Z,8.10
2023-05-17T05:44:17.067Z,8.20
2023-05-17T05:47:03.915Z,8.30
2023-05-17T05:49:50.748Z,8.40
2023-05-17T05:52:37.557Z,8.50
2023-05-17T05:55:24.288Z,8.60
2023-05-17T05:58:11.162Z,8.70
2023-05-17T06:00:58.328Z,8.70
2023-05-17T06:03:47.856Z,8.70
2023-05-17T06:06:35.121Z,8.80
2023-05-17T06:09:22.056Z,8.80
2023-05-17T06:12:08.941Z,8.80
2023-05-17T06:14:55.726Z,8.90
2023-05-17T06:17:42.597Z,9.00
2023-05-17T06:20:29.786Z,9.00
2023-05-17T06:23:17.032Z,9.10
2023-05-17T06:26:03.774Z,9.20
2023-05-17T06:28:50.565Z,9.30
2023-05-17T06:31:37.303Z,9.40
2023-05-17T06:34:24.077Z,9.50
2023-05-17T06:37:11.043Z,9.60
2023-05-17T06:40:14.671Z,9.70
2023-05-17T06:43:02.731Z,9.80
2023-05-17T06:45:49.582Z,9.90
2023-05-17T06:48:36.401Z,10.00
2023-05-17T06:51:23.429Z,10.10
2023-05-17T06:54:10.239Z,10.10
2023-05-17T06:57:00.818Z,10.10
2023-05-17T06:59:47.614Z,10.20
2023-05-17T07:02:34.906Z,10.30
2023-05-17T07:05:22.463Z,10.30
2023-05-17T07:08:09.305Z,10.40
2023-05-17T07:10:58.565Z,10.50
2023-05-17T07:13:46.783Z,10.50
2023-05-17T07:16:33.795Z,10.60
2023-05-17T07:19:20.885Z,10.70
2023-05-17T07:22:07.915Z,10.70
2023-05-17T07:24:54.674Z,10.80
2023-05-17T07:27:41.441Z,10.80
2023-05-17T07:30:28.206Z,10.90
2023-05-17T07:33:14.938Z,10.90
2023-05-17T07:36:01.889Z,10.90
2023-05-17T07:38:48.740Z,10.90
2023-05-17T07:41:36.252Z,11.00
2023-05-17T07:44:22.989Z,11.10
2023-05-17T07:47:09.770Z,11.20
2023-05-17T07:49:56.572Z,11.20
2023-05-17T07:52:43.392Z,11.30
2023-05-17T07:55:30.300Z,11.30
2023-05-17T07:58:17.245Z,11.40
2023-05-17T08:01:04.233Z,11.50
2023-05-17T08:03:51.059Z,11.60
2023-05-17T08:06:37.749Z,11.80
2023-05-17T08:09:24.465Z,11.90
2023-05-17T08:12:14.452Z,11.90
2023-05-17T08:15:01.293Z,12.00
2023-05-17T08:17:48.185Z,12.00
2023-05-17T08:20:35.100Z,12.20
2023-05-17T08:23:21.811Z,12.30
2023-05-17T08:26:08.504Z,12.40
2023-05-17T08:28:55.667Z,12.50
2023-05-17T08:31:42.805Z,12.70
2023-05-17T08:34:29.589Z,12.70
2023-05-17T08:37:16.365Z,12.80
2023-05-17T08:40:04.883Z,12.90
2023-05-17T08:42:52.537Z,13.00
2023-05-17T08:45:39.329Z,13.30
2023-05-17T08:48:31.400Z,13.40
2023-05-17T08:51:19.824Z,13.50
2023-05-17T08:54:06.698Z,13.60
2023-05-17T08:56:58.778Z,13.70
2023-05-17T08:59:46.775Z,13.90
2023-05-17T09:02:33.735Z,13.80
2023-05-17T09:05:20.685Z,13.70
2023-05-17T09:08:07.846Z,13.50
2023-05-17T09:10:56.938Z,13.40
2023-05-17T09:13:43.698Z,13.30
2023-05-17T09:16:31.237Z,13.30
2023-05-17T09:19:18.210Z,13.40
2023-05-17T09:22:05.241Z,13.30
2023-05-17T09:24:52.032Z,13.30
2023-05-17T09:27:38.800Z,13.40
2023-05-17T09:30:29.991Z,13.60
2023-05-17T09:33:20.563Z,13.80
2023-05-17T09:36:15.102Z,14.00
2023-05-17T09:39:05.870Z,14.20
2023-05-17T09:41:56.892Z,14.20
2023-05-17T09:44:47.858Z,14.40
2023-05-17T09:47:35.461Z,14.60
2023-05-17T09:50:25.287Z,14.60
2023-05-17T09:53:22.745Z,14.50
2023-05-17T09:56:10.310Z,14.70
2023-05-17T09:58:58.985Z,14.80
2023-05-17T10:01:46.072Z,15.00
2023-05-17T10:04:34.600Z,15.10
2023-05-17T10:07:21.651Z,15.20
2023-05-17T10:10:09.152Z,15.20
2023-05-17T10:13:33.649Z,15.20
2023-05-17T10:16:23.472Z,15.10
2023-05-17T10:19:11.831Z,15.10
2023-05-17T10:22:08.311Z,15.10
2023-05-17T10:24:59.228Z,15.00
2023-05-17T10:27:47.392Z,14.80
2023-05-17T10:30:36.367Z,15.00
2023-05-17T10:33:24.219Z,15.30
2023-05-17T10:36:12.813Z,15.60
2023-05-17T10:39:00.708Z,15.80
2023-05-17T10:41:52.821Z,16.10
2023-05-17T10:44:40.223Z,16.20
2023-05-17T10:47:34.530Z,16.10
2023-05-17T10:50:26.997Z,16.10
2023-05-17T10:53:14.165Z,16.20
2023-05-17T10:56:00.993Z,16.30
2023-05-17T10:58:47.985Z,16.40
2023-05-17T11:01:54.483Z,16.60
2023-05-17T11:04:45.052Z,16.80
2023-05-17T11:07:33.883Z,17.00
2023-05-17T11:10:20.824Z,17.30
2023-05-17T11:13:25.398Z,17.30
2023-05-17T11:16:18.054Z,17.40
2023-05-17T11:19:12.657Z,17.60
2023-05-17T11:22:10.411Z,18.00
2023-05-17T11:24:58.066Z,18.20
2023-05-17T11:27:50.306Z,18.10
2023-05-17T11:30:42.854Z,17.80
2023-05-17T11:33:45.808Z,17.80
2023-05-17T11:36:50.525Z,18.40
2023-05-17T11:39:37.599Z,19.10
2023-05-17T11:42:26.107Z,19.70
2023-05-17T11:45:13.648Z,20.40
2023-05-17T11:48:00.629Z,21.30
2023-05-17T11:50:49.164Z,22.70
2023-05-17T11:53:36.630Z,24.00
2023-05-17T11:56:35.609Z,25.10
2023-05-17T11:59:29.109Z,27.50
2023-05-17T12:02:33.135Z,29.50
2023-05-17T12:05:21.003Z,29.90
2023-05-17T12:08:08.031Z,28.10
2023-05-17T12:10:57.167Z,27.40
2023-05-17T12:13:49.032Z,25.90
2023-05-17T12:16:43.539Z,24.10
2023-05-17T12:19:32.695Z,22.90
2023-05-17T12:22:19.971Z,22.30
2023-05-17T12:25:19.788Z,22.00
2023-05-17T12:28:15.367Z,21.50
2023-05-17T12:31:03.410Z,20.90
2023-05-17T12:33:51.072Z,20.50
2023-05-17T12:36:38.077Z,20.00
2023-05-17T12:39:25.344Z,19.70
2023-05-17T12:42:12.518Z,19.80
2023-05-17T12:45:00.223Z,19.90
2023-05-17T12:47:50.937Z,20.10
2023-05-17T12:50:37.957Z,20.50
2023-05-17T12:53:26.014Z,20.90
2023-05-17T12:56:21.676Z,20.70
2023-05-17T12:59:14.526Z,20.30
2023-05-17T13:02:02.300Z,19.80
2023-05-17T13:04:49.500Z,19.70
2023-05-17T13:07:36.454Z,19.70
2023-05-17T13:10:30.530Z,19.70
2023-05-17T13:13:21.253Z,19.80
2023-05-17T13:16:08.637Z,20.00
2023-05-17T13:18:58.943Z,20.00
2023-05-17T13:21:46.097Z,19.80
2023-05-17T13:24:37.556Z,19.80
2023-05-17T13:27:24.459Z,20.00
2023-05-17T13:30:12.172Z,20.10
2023-05-17T13:32:59.005Z,20.10
2023-05-17T13:35:46.029Z,20.10
2023-05-17T13:38:32.959Z,19.80
2023-05-17T13:41:19.870Z,19.80
2023-05-17T13:44:07.440Z,19.80
2023-05-17T13:46:54.305Z,19.70
2023-05-17T13:49:41.539Z,19.60
2023-05-17T13:52:28.445Z,19.40
2023-05-17T13:55:15.449Z,19.10
2023-05-17T13:58:02.315Z,18.90
2023-05-17T14:00:49.963Z,18.80
2023-05-17T14:03:36.844Z,18.80
2023-05-17T14:06:23.981Z,18.60
2023-05-17T14:09:11.931Z,18.70
2023-05-17T14:12:00.938Z,18.70
2023-05-17T14:14:48.030Z,18.70
2023-05-17T14:17:35.105Z,18.60
2023-05-17T14:20:22.246Z,18.50
2023-05-17T14:23:09.307Z,18.40
2023-05-17T14:25:57.717Z,18.40
2023-05-17T14:28:44.647Z,18.30
2023-05-17T14:31:32.526Z,18.40
2023-05-17T14:34:19.423Z,18.30
2023-05-17T14:37:06.426Z,18.20
2023-05-17T14:40:05.899Z,18.20
2023-05-17T14:42:53.906Z,18.20
2023-05-17T14:45:42.905Z,18.10
2023-05-17T14:48:31.309Z,18.10
2023-05-17T14:51:19.585Z,18.10
2023-05-17T14:54:06.484Z,18.30
2023-05-17T14:56:53.548Z,18.40
2023-05-17T14:59:41.115Z,18.50
2023-05-17T15:02:29.286Z,18.40
2023-05-17T15:05:16.519Z,18.40
2023-05-17T15:08:04.471Z,18.20
2023-05-17T15:10:53.175Z,18.10
2023-05-17T15:13:40.136Z,18.00
2023-05-17T15:16:27.097Z,17.80
2023-05-17T15:19:14.551Z,17.70
2023-05-17T15:22:02.078Z,17.60
2023-05-17T15:24:51.469Z,17.40
2023-05-17T15:27:38.308Z,17.30
2023-05-17T15:30:27.501Z,17.10
2023-05-17T15:33:14.604Z,17.00
2023-05-17T15:36:01.752Z,16.90
2023-05-17T15:38:48.607Z,16.80
2023-05-17T15:41:35.958Z,16.70
2023-05-17T15:44:23.957Z,16.70
2023-05-17T15:47:11.057Z,16.60
2023-05-17T15:49:58.228Z,16.50
2023-05-17T15:52:47.434Z,16.40
2023-05-17T15:55:34.428Z,16.40
2023-05-17T15:58:23.170Z,16.30
2023-05-17T16:01:10.124Z,16.30
2023-05-17T16:03:57.069Z,16.20
2023-05-17T16:06:44.091Z,16.10
2023-05-17T16:09:31.159Z,16.00
2023-05-17T16:12:18.037Z,16.00
2023-05-17T16:15:05.221Z,15.90
2023-05-17T16:17:52.106Z,15.80
2023-05-17T16:20:39.100Z,15.80
2023-05-17T16:23:26.061Z,15.80
2023-05-17T16:26:13.535Z,15.70
2023-05-17T16:29:00.845Z,15.70
2023-05-17T16:31:51.604Z,15.80
2023-05-17T16:34:38.411Z,15.80
2023-05-17T16:37:25.279Z,15.90
2023-05-17T16:40:12.530Z,16.00
2023-05-17T16:42:59.500Z,16.10
2023-05-17T16:45:46.781Z,16.10
2023-05-17T16:48:33.657Z,16.10
2023-05-17T16:51:20.777Z,16.00
2023-05-17T16:54:08.047Z,15.80
2023-05-17T16:56:54.980Z,15.70
2023-05-17T16:59:42.172Z,15.60
2023-05-17T17:02:29.167Z,15.50
2023-05-17T17:05:16.056Z,15.30
2023-05-17T17:08:02.955Z,15.20
2023-05-17T17:10:49.870Z,15.00
2023-05-17T17:13:36.864Z,15.00
2023-05-17T17:16:23.870Z,15.00
2023-05-17T17:19:10.944Z,15.00
2023-05-17T17:21:57.910Z,15.00
2023-05-17T17:24:44.758Z,15.10
2023-05-17T17:27:31.691Z,15.10
2023-05-17T17:30:18.663Z,15.10
2023-05-17T17:33:05.533Z,15.10
2023-05-17T17:35:52.480Z,15.10
2023-05-17T17:38:39.420Z,15.00
2023-05-17T17:41:26.670Z,15.00
2023-05-17T17:44:13.598Z,14.80
2023-05-17T17:47:00.577Z,14.60
2023-05-17T17:49:47.442Z,14.50
2023-05-17T17:52:34.427Z,14.40
2023-05-17T17:55:21.663Z,14.30
2023-05-17T17:58:08.541Z,14.10
2023-05-17T18:00:55.544Z,14.10
2023-05-17T18:03:42.684Z,14.10
2023-05-17T18:06:29.606Z,14.00
2023-05-17T18:09:16.430Z,13.90
2023-05-17T18:12:03.363Z,13.80
2023-05-17T18:14:50.228Z,13.60
2023-05-17T18:17:37.584Z,13.40
2023-05-17T18:20:26.325Z,13.30
2023-05-17T18:23:13.322Z,13.10
2023-05-17T18:26:00.256Z,13.00
2023-05-17T18:28:47.131Z,12.90
2023-05-17T18:31:33.999Z,12.70
2023-05-17T18:34:21.081Z,12.60
2023-05-17T18:37:07.955Z,12.50
2023-05-17T18:39:55.340Z,12.30
2023-05-17T18:42:42.521Z,12.20
2023-05-17T18:45:30.286Z,12.10
2023-05-17T18:48:17.336Z,12.00
2023-05-17T18:51:04.308Z,11.80
2023-05-17T18:53:51.241Z,11.80
2023-05-17T18:56:38.143Z,11.70
2023-05-17T18:59:25.030Z,11.60
2023-05-17T19:02:11.939Z,11.50
2023-05-17T19:04:58.729Z,11.40
2023-05-17T19:07:45.639Z,11.30
2023-05-17T19:10:32.782Z,11.20
2023-05-17T19:13:19.774Z,11.20
2023-05-17T19:16:07.308Z,11.10
2023-05-17T19:18:54.263Z,11.00
2023-05-17T19:21:41.199Z,10.90
2023-05-17T19:24:28.241Z,10.80
2023-05-17T19:27:19.416Z,10.80
2023-05-17T19:30:07.355Z,10.70
2023-05-17T19:32:54.239Z,10.60
2023-05-17T19:35:41.379Z,10.50
2023-05-17T19:38:28.289Z,10.40
2023-05-17T19:41:15.233Z,10.40
2023-05-17T19:44:02.624Z,10.40
2023-05-17T19:46:49.501Z,10.30
2023-05-17T19:49:36.554Z,10.30
2023-05-17T19:52:23.428Z,10.20
2023-05-17T19:55:10.445Z,10.10
2023-05-17T19:57:57.746Z,10.00
2023-05-17T20:00:44.620Z,10.00
2023-05-17T20:03:31.663Z,9.90
2023-05-17T20:06:18.593Z,9.90
2023-05-17T20:09:06.219Z,9.80
2023-05-17T20:11:53.049Z,9.80
2023-05-17T20:14:39.886Z,9.70
2023-05-17T20:17:26.773Z,9.60
2023-05-17T20:20:13.775Z,9.60
2023-05-17T20:23:00.675Z,9.60
2023-05-17T20:25:47.570Z,9.50
2023-05-17T20:28:34.434Z,9.50
2023-05-17T20:31:21.571Z,9.50
2023-05-17T20:34:08.416Z,9.50
2023-05-17T20:36:56.334Z,9.50
2023-05-17T20:39:43.233Z,9.40
2023-05-17T20:42:31.174Z,9.40
2023-05-17T20:45:18.060Z,9.30
2023-05-17T20:48:05.022Z,9.20
2023-05-17T20:50:51.924Z,9.10
2023-05-17T20:53:39.390Z,9.10
2023-05-17T20:56:26.235Z,9.10
2023-05-17T20:59:13.207Z,9.10
2023-05-17T21:02:00.077Z,9.10
2023-05-17T21:04:47.021Z,9.00
2023-05-17T21:07:34.946Z,9.00
2023-05-17T21:10:22.080Z,9.00
2023-05-17T21:13:09.682Z,8.90
2023-05-17T21:15:56.967Z,8.90
2023-05-17T21:18:45.297Z,8.80
2023-05-17T21:21:32.316Z,8.80
2023-05-17T21:24:19.198Z,8.80
2023-05-17T21:27:06.049Z,8.80
2023-05-17T21:29:52.895Z,8.60
2023-05-17T21:32:40.013Z,8.60
2023-05-17T21:35:29.332Z,8.70
2023-05-17T21:38:16.264Z,8.70
2023-05-17T21:41:03.292Z,8.70
2023-05-17T21:43:50.238Z,8.70
2023-05-17T21:46:37.127Z,8.80
2023-05-17T21:49:24.010Z,8.80
2023-05-17T21:52:10.908Z,8.80
2023-05-17T21:54:57.723Z,8.80
2023-05-17T21:57:44.582Z,8.70
2023-05-17T22:00:31.660Z,8.60
2023-05-17T22:03:18.758Z,8.60
2023-05-17T22:06:05.929Z,8.70
2023-05-17T22:08:52.854Z,8.70
2023-05-17T22:11:40.662Z,8.70
2023-05-17T22:14:33.010Z,8.70
2023-05-17T22:17:29.637Z,8.70
2023-05-17T22:20:26.926Z,8.60
2023-05-17T22:23:13.936Z,8.60
2023-05-17T22:26:00.997Z,8.50
2023-05-17T22:28:48.137Z,8.50
2023-05-17T22:31:37.954Z,8.50
2023-05-17T22:34:24.972Z,8.40
2023-05-17T22:37:12.250Z,8.50
2023-05-17T22:39:59.164Z,8.50
2023-05-17T22:42:46.179Z,8.50
2023-05-17T22:45:34.864Z,8.40
2023-05-17T22:48:21.773Z,8.40
2023-05-17T22:51:08.682Z,8.20
2023-05-17T22:53:56.060Z,8.20
2023-05-17T22:56:42.955Z,8.20
2023-05-17T22:59:31.915Z,8.10
2023-05-17T23:02:18.810Z,8.00
2023-05-17T23:05:06.080Z,8.00
2023-05-17T23:07:53.450Z,8.00
2023-05-17T23:10:40.385Z,8.00
2023-05-17T23:13:27.541Z,8.00
2023-05-17T23:16:14.419Z,8.00
2023-05-17T23:19:04.169Z,8.00
2023-05-17T23:21:51.036Z,8.00
2023-05-17T23:24:38.806Z,8.00
2023-05-17T23:27:27.732Z,7.90
2023-05-17T23:30:18.108Z,7.90
2023-05-17T23:33:05.124Z,7.80
2023-05-17T23:35:53.670Z,7.80
2023-05-17T23:38:40.568Z,7.70
2023-05-17T23:41:29.587Z,7.70
2023-05-17T23:44:18.708Z,7.70
2023-05-17T23:47:05.673Z,7.60
2023-05-17T23:49:52.852Z,7.60
2023-05-17T23:52:39.972Z,7.60
2023-05-17T23:55:26.998Z,7.60
2023-05-17T23:58:16.893Z,7.50
